Time,TemperatureF,DewpointF,PressureIn,WindDirection,WindDirectionDegrees,WindSpeedMPH,WindSpeedGustMPH,Humidity,HourlyPrecipIn,Conditions,Clouds,dailyrainin,SolarRadiationWatts/m^2,SoftwareType,DateUTC
2013-08-23 00:01:00,70.0,42.0,-100.00,ESE,102,0.0,6.0,36,0.00,,,0.00,0.000000,,2013-08-23 07:01:00,
2013-08-23 00:42:00,68.0,43.0,-100.00,ESE,123,4.0,5.0,40,0.00,,,0.00,0.000000,,2013-08-23 07:42:00,
2013-08-23 00:52:00,68.0,43.0,-100.00,ESE,123,4.0,5.0,40,0.00,,,0.00,0.000000,,2013-08-23 07:52:00,
2013-08-23 01:02:00,68.0,43.0,-100.00,ESE,123,4.0,5.0,40,0.00,,,0.00,0.000000,,2013-08-23 08:02:00,
2013-08-23 01:42:00,71.0,45.0,-100.00,SE,130,3.0,5.0,40,0.00,,,0.00,0.000000,,2013-08-23 08:42:00,
2013-08-23 01:52:00,71.0,45.0,-100.00,SE,130,3.0,5.0,40,0.00,,,0.00,0.000000,,2013-08-23 08:52:00,
2013-08-23 02:01:00,71.0,45.0,-100.00,SE,130,3.0,5.0,40,0.00,,,0.00,0.000000,,2013-08-23 09:01:00,
2013-08-23 02:43:00,68.0,45.0,-100.00,ESE,119,3.0,6.0,43,0.00,,,0.00,0.000000,,2013-08-23 09:43:00,
2013-08-23 02:53:00,68.0,45.0,-100.00,ESE,119,3.0,6.0,43,0.00,,,0.00,0.000000,,2013-08-23 09:53:00,
2013-08-23 03:03:00,68.0,45.0,-100.00,ESE,119,3.0,6.0,43,0.00,,,0.00,0.000000,,2013-08-23 10:03:00,
2013-08-23 03:42:00,67.0,44.0,-100.00,ESE,119,2.0,4.0,43,0.00,,,0.00,0.000000,,2013-08-23 10:42:00,
2013-08-23 03:52:00,67.0,44.0,-100.00,ESE,119,2.0,4.0,43,0.00,,,0.00,0.000000,,2013-08-23 10:52:00,
2013-08-23 04:02:00,67.0,44.0,-100.00,ESE,119,2.0,4.0,43,0.00,,,0.00,0.000000,,2013-08-23 11:02:00,
2013-08-23 04:42:00,66.0,46.0,-100.00,North,355,0.0,5.0,49,0.00,,,0.00,0.000000,,2013-08-23 11:42:00,
2013-08-23 04:53:00,66.0,46.0,-100.00,North,355,0.0,5.0,49,0.00,,,0.00,0.000000,,2013-08-23 11:53:00,
2013-08-23 05:01:00,66.0,46.0,-100.00,North,355,0.0,5.0,49,0.00,,,0.00,0.000000,,2013-08-23 12:01:00,
2013-08-23 05:42:00,67.0,48.0,-100.00,ENE,57,2.0,4.0,51,0.00,,,0.00,0.000000,,2013-08-23 12:42:00,
2013-08-23 05:52:00,67.0,48.0,-100.00,ENE,57,2.0,4.0,51,0.00,,,0.00,0.000000,,2013-08-23 12:52:00,
2013-08-23 06:02:00,67.0,48.0,-100.00,ENE,57,2.0,4.0,51,0.00,,,0.00,0.000000,,2013-08-23 13:02:00,
2013-08-23 06:42:00,66.0,49.0,-100.00,SSE,149,0.0,5.0,55,0.00,,,0.00,0.000000,,2013-08-23 13:42:00,
2013-08-23 06:52:00,66.0,49.0,-100.00,SSE,149,0.0,5.0,55,0.00,,,0.00,0.000000,,2013-08-23 13:52:00,
2013-08-23 07:02:00,66.0,49.0,-100.00,SSE,149,0.0,5.0,55,0.00,,,0.00,0.000000,,2013-08-23 14:02:00,
2013-08-23 07:42:00,65.0,49.0,-100.00,ESE,111,1.0,6.0,57,0.00,,,0.00,20.000000,,2013-08-23 14:42:00,
2013-08-23 07:52:00,65.0,49.0,-100.00,ESE,111,1.0,6.0,57,0.00,,,0.00,20.000000,,2013-08-23 14:52:00,
2013-08-23 08:01:00,65.0,49.0,-100.00,ESE,111,1.0,6.0,57,0.00,,,0.00,20.000000,,2013-08-23 15:01:00,
2013-08-23 08:44:00,70.0,54.0,-100.00,WNW,295,7.0,10.0,56,0.00,,,0.00,107.000000,,2013-08-23 15:44:00,
2013-08-23 08:54:00,70.0,54.0,-100.00,WNW,295,7.0,10.0,56,0.00,,,0.00,107.000000,,2013-08-23 15:54:00,
2013-08-23 09:05:00,70.0,54.0,-100.00,WNW,295,7.0,10.0,56,0.00,,,0.00,107.000000,,2013-08-23 16:05:00,
2013-08-23 09:42:00,71.0,52.0,-100.00,NNE,32,2.0,8.0,51,0.00,,,0.00,149.000000,,2013-08-23 16:42:00,
2013-08-23 09:53:00,71.0,52.0,-100.00,NNE,32,2.0,8.0,51,0.00,,,0.00,149.000000,,2013-08-23 16:53:00,
2013-08-23 10:03:00,71.0,52.0,-100.00,NNE,32,2.0,8.0,51,0.00,,,0.00,149.000000,,2013-08-23 17:03:00,
2013-08-23 10:43:00,76.0,53.0,-100.00,West,277,6.0,13.0,45,0.00,,,0.00,328.000000,,2013-08-23 17:43:00,
2013-08-23 10:53:00,76.0,53.0,-100.00,West,277,6.0,13.0,45,0.00,,,0.00,328.000000,,2013-08-23 17:53:00,
2013-08-23 11:02:00,76.0,53.0,-100.00,West,277,6.0,13.0,45,0.00,,,0.00,328.000000,,2013-08-23 18:02:00,
2013-08-23 11:42:00,77.0,51.0,-100.00,West,270,11.0,18.0,41,0.00,,,0.00,590.000000,,2013-08-23 18:42:00,
2013-08-23 11:52:00,77.0,51.0,-100.00,West,270,11.0,18.0,41,0.00,,,0.00,590.000000,,2013-08-23 18:52:00,
2013-08-23 12:01:00,77.0,51.0,-100.00,West,270,11.0,18.0,41,0.00,,,0.00,590.000000,,2013-08-23 19:01:00,
2013-08-23 12:42:00,79.0,52.0,-100.00,WSW,251,8.0,15.0,39,0.00,,,0.00,663.000000,,2013-08-23 19:42:00,
2013-08-23 12:52:00,79.0,52.0,-100.00,WSW,251,8.0,15.0,39,0.00,,,0.00,663.000000,,2013-08-23 19:52:00,
2013-08-23 13:01:00,79.0,52.0,-100.00,WSW,251,8.0,15.0,39,0.00,,,0.00,663.000000,,2013-08-23 20:01:00,
2013-08-23 13:42:00,81.0,52.0,-100.00,West,281,7.0,17.0,36,0.00,,,0.00,790.000000,,2013-08-23 20:42:00,
2013-08-23 13:52:00,81.0,52.0,-100.00,West,281,7.0,17.0,36,0.00,,,0.00,790.000000,,2013-08-23 20:52:00,
2013-08-23 14:02:00,81.0,52.0,-100.00,West,281,7.0,17.0,36,0.00,,,0.00,790.000000,,2013-08-23 21:02:00,
2013-08-23 14:44:00,82.0,47.0,-100.00,SSW,212,8.0,15.0,29,0.00,,,0.00,562.000000,,2013-08-23 21:44:00,
2013-08-23 14:54:00,82.0,47.0,-100.00,SSW,212,8.0,15.0,29,0.00,,,0.00,562.000000,,2013-08-23 21:54:00,
2013-08-23 15:04:00,82.0,47.0,-100.00,SSW,212,8.0,15.0,29,0.00,,,0.00,562.000000,,2013-08-23 22:04:00,
2013-08-23 15:43:00,83.0,48.0,-100.00,West,259,9.0,14.0,30,0.00,,,0.00,568.000000,,2013-08-23 22:43:00,
2013-08-23 15:53:00,83.0,48.0,-100.00,West,259,9.0,14.0,30,0.00,,,0.00,568.000000,,2013-08-23 22:53:00,
2013-08-23 16:03:00,83.0,48.0,-100.00,West,259,9.0,14.0,30,0.00,,,0.00,568.000000,,2013-08-23 23:03:00,
2013-08-23 16:43:00,82.0,50.0,-100.00,SW,224,7.0,14.0,33,0.00,,,0.00,467.000000,,2013-08-23 23:43:00,
2013-08-23 16:54:00,82.0,50.0,-100.00,SW,224,7.0,14.0,33,0.00,,,0.00,467.000000,,2013-08-23 23:54:00,
2013-08-23 17:02:00,82.0,50.0,-100.00,SW,224,7.0,14.0,33,0.00,,,0.00,467.000000,,2013-08-24 00:02:00,
2013-08-23 17:43:00,84.0,51.0,-100.00,South,191,8.0,14.0,32,0.00,,,0.00,488.000000,,2013-08-24 00:43:00,
2013-08-23 17:53:00,84.0,51.0,-100.00,South,191,8.0,14.0,32,0.00,,,0.00,488.000000,,2013-08-24 00:53:00,
2013-08-23 18:02:00,84.0,51.0,-100.00,South,191,8.0,14.0,32,0.00,,,0.00,488.000000,,2013-08-24 01:02:00,
2013-08-23 18:42:00,81.0,49.0,-100.00,SSW,200,8.0,14.0,33,0.00,,,0.00,323.000000,,2013-08-24 01:42:00,
2013-08-23 18:53:00,81.0,49.0,-100.00,SSW,200,8.0,14.0,33,0.00,,,0.00,323.000000,,2013-08-24 01:53:00,
2013-08-23 19:02:00,81.0,49.0,-100.00,SSW,200,8.0,14.0,33,0.00,,,0.00,323.000000,,2013-08-24 02:02:00,
2013-08-23 19:42:00,79.0,47.0,-100.00,SSW,208,7.0,13.0,32,0.00,,,0.00,162.000000,,2013-08-24 02:42:00,
2013-08-23 19:52:00,79.0,47.0,-100.00,SSW,208,7.0,13.0,32,0.00,,,0.00,162.000000,,2013-08-24 02:52:00,
2013-08-23 20:02:00,79.0,47.0,-100.00,SSW,208,7.0,13.0,32,0.00,,,0.00,162.000000,,2013-08-24 03:02:00,
2013-08-23 20:44:00,71.0,52.0,-100.00,NNE,21,13.0,19.0,51,0.00,,,-99.99,16.000000,,2013-08-24 03:44:00,
2013-08-23 20:54:00,71.0,52.0,-100.00,NNE,21,13.0,19.0,51,0.00,,,-99.99,16.000000,,2013-08-24 03:54:00,
2013-08-23 21:04:00,71.0,52.0,-100.00,NNE,21,13.0,19.0,51,0.00,,,-99.99,16.000000,,2013-08-24 04:04:00,
2013-08-23 21:44:00,66.0,52.0,-100.00,North,11,7.0,21.0,60,0.00,,,0.00,0.000000,,2013-08-24 04:44:00,
2013-08-23 21:53:00,66.0,52.0,-100.00,North,11,7.0,21.0,60,0.00,,,0.00,0.000000,,2013-08-24 04:53:00,
2013-08-23 22:03:00,66.0,52.0,-100.00,North,11,7.0,21.0,60,0.00,,,0.00,0.000000,,2013-08-24 05:03:00,
2013-08-23 22:43:00,65.0,51.0,-100.00,North,4,8.0,16.0,60,0.00,,,0.00,0.000000,,2013-08-24 05:43:00,
2013-08-23 22:53:00,65.0,51.0,-100.00,North,4,8.0,16.0,60,0.00,,,0.00,0.000000,,2013-08-24 05:53:00,
2013-08-23 23:02:00,65.0,51.0,-100.00,North,4,8.0,16.0,60,0.00,,,0.00,0.000000,,2013-08-24 06:02:00,
2013-08-23 23:42:00,63.0,52.0,-100.00,NE,54,2.0,10.0,67,0.00,,,0.00,0.000000,,2013-08-24 06:42:00,
2013-08-23 23:52:00,63.0,52.0,-100.00,NE,54,2.0,10.0,67,0.00,,,0.00,0.000000,,2013-08-24 06:52:00,